createdAt,value
2023-04-15T00:02:27.713Z,100943.13
2023-04-15T00:04:57.022Z,100936.88
2023-04-15T00:07:26.278Z,100936.88
2023-04-15T00:10:02.187Z,100967.28
2023-04-15T00:12:40.843Z,100972.19
2023-04-15T00:15:12.250Z,100956.94
2023-04-15T00:17:41.864Z,100962.88
2023-04-15T00:20:12.431Z,100986.16
2023-04-15T00:22:48.489Z,100946.34
2023-04-15T00:25:17.877Z,100977.97
2023-04-15T00:27:54.065Z,100969.19
2023-04-15T00:30:23.543Z,100984.16
2023-04-15T00:32:53.446Z,100970.22
2023-04-15T00:35:24.606Z,100980.06
2023-04-15T00:37:53.862Z,100993.66
2023-04-15T00:40:34.071Z,100996.88
2023-04-15T00:43:06.777Z,100980.41
2023-04-15T00:45:36.370Z,101022.72
2023-04-15T00:48:06.608Z,101026.19
2023-04-15T00:50:35.992Z,100999.66
2023-04-15T00:53:10.417Z,101017.88
2023-04-15T00:55:45.762Z,100991.38
2023-04-15T00:58:22.099Z,101012.34
2023-04-15T01:00:58.674Z,101010.88
2023-04-15T01:03:33.197Z,101021.59
2023-04-15T01:06:04.121Z,101025.06
2023-04-15T01:08:34.049Z,100959.69
2023-04-15T01:11:04.968Z,101014.44
2023-04-15T01:13:41.545Z,101023.81
2023-04-15T01:16:11.404Z,101034.94
2023-04-15T01:18:40.786Z,101042.31
2023-04-15T01:21:10.389Z,101028.88
2023-04-15T01:23:40.378Z,101042.53
2023-04-15T01:26:12.374Z,101049.28
2023-04-15T01:28:41.912Z,101048.34
2023-04-15T01:31:12.160Z,101028.78
2023-04-15T01:33:48.018Z,101051.50
2023-04-15T01:36:36.488Z,101023.63
2023-04-15T01:39:06.393Z,101045.56
2023-04-15T01:41:37.674Z,101043.09
2023-04-15T01:44:12.807Z,101063.97
2023-04-15T01:46:48.041Z,101058.47
2023-04-15T01:49:17.836Z,101048.69
2023-04-15T01:51:46.981Z,101043.88
2023-04-15T01:54:22.304Z,101064.00
2023-04-15T01:56:56.375Z,101069.78
2023-04-15T01:59:27.384Z,101078.28
2023-04-15T02:01:57.106Z,101072.94
2023-04-15T02:04:26.388Z,101044.63
2023-04-15T02:06:56.501Z,101069.47
2023-04-15T02:09:25.907Z,101080.50
2023-04-15T02:12:02.136Z,101089.25
2023-04-15T02:14:36.421Z,101091.63
2023-04-15T02:17:10.892Z,101088.19
2023-04-15T02:19:40.259Z,101092.16
2023-04-15T02:22:11.087Z,101043.31
2023-04-15T02:24:40.444Z,101096.44
2023-04-15T02:27:11.663Z,101086.25
2023-04-15T02:29:40.984Z,101109.94
2023-04-15T02:32:17.620Z,101099.25
2023-04-15T02:34:46.996Z,101110.28
2023-04-15T02:37:16.853Z,101101.34
2023-04-15T02:39:46.244Z,101080.97
2023-04-15T02:42:17.459Z,101118.69
2023-04-15T02:44:46.685Z,101127.28
2023-04-15T02:47:16.155Z,101135.69
2023-04-15T02:49:45.824Z,101140.75
2023-04-15T02:52:20.525Z,101144.34
2023-04-15T02:54:53.809Z,101140.94
2023-04-15T02:57:25.850Z,101141.63
2023-04-15T03:00:04.440Z,101134.03
2023-04-15T03:02:36.624Z,101149.91
2023-04-15T03:05:08.142Z,101161.88
2023-04-15T03:07:42.344Z,101152.31
2023-04-15T03:10:12.559Z,101163.53
2023-04-15T03:12:44.145Z,101169.75
2023-04-15T03:15:18.712Z,101159.59
2023-04-15T03:18:00.262Z,101164.13
2023-04-15T03:20:29.544Z,101162.66
2023-04-15T03:22:58.695Z,101175.53
2023-04-15T03:25:39.202Z,101166.31
2023-04-15T03:28:11.752Z,101180.00
2023-04-15T03:30:46.593Z,101156.69
2023-04-15T03:33:16.077Z,101152.41
2023-04-15T03:35:52.488Z,101173.50
2023-04-15T03:38:21.681Z,101147.94
2023-04-15T03:40:51.767Z,101185.31
2023-04-15T03:43:29.480Z,101188.28
2023-04-15T03:46:01.404Z,101184.78
2023-04-15T03:48:31.122Z,101161.66
2023-04-15T03:51:00.162Z,101193.72
2023-04-15T03:53:29.458Z,101189.75
2023-04-15T03:56:14.741Z,101199.91
2023-04-15T03:58:45.867Z,101197.53
2023-04-15T04:01:20.508Z,101193.59
2023-04-15T04:03:49.973Z,101198.47
2023-04-15T04:06:19.541Z,101199.56
2023-04-15T04:08:48.825Z,101187.66
2023-04-15T04:11:18.200Z,101203.13
2023-04-15T04:13:49.309Z,101195.09
2023-04-15T04:16:18.475Z,101225.25
2023-04-15T04:18:52.780Z,101221.69
2023-04-15T04:21:22.403Z,101209.59
2023-04-15T04:23:51.794Z,101220.38
2023-04-15T04:26:27.077Z,101207.50
2023-04-15T04:29:07.790Z,101220.72
2023-04-15T04:31:36.943Z,101214.25
2023-04-15T04:34:06.623Z,101225.09
2023-04-15T04:36:40.903Z,101226.34
2023-04-15T04:39:15.086Z,101217.28
2023-04-15T04:41:44.330Z,101218.84
2023-04-15T04:44:21.928Z,101225.88
2023-04-15T04:46:51.084Z,101221.56
2023-04-15T04:49:25.327Z,101221.19
2023-04-15T04:51:54.757Z,101227.94
2023-04-15T04:54:24.000Z,101230.81
2023-04-15T04:56:53.275Z,101209.19
2023-04-15T04:59:30.618Z,101234.41
2023-04-15T05:01:59.964Z,101238.63
2023-04-15T05:04:29.304Z,101231.19
2023-04-15T05:06:59.050Z,101233.69
2023-04-15T05:09:29.090Z,101219.53
2023-04-15T05:11:58.178Z,101231.44
2023-04-15T05:14:34.388Z,101230.63
2023-04-15T05:17:03.715Z,101226.56
2023-04-15T05:19:32.867Z,101230.56
2023-04-15T05:24:37.187Z,101234.91
2023-04-15T05:27:08.169Z,101237.88
2023-04-15T05:29:39.386Z,101238.28
2023-04-15T05:32:09.069Z,101223.09
2023-04-15T05:34:38.289Z,101227.69
2023-04-15T05:37:07.622Z,101242.41
2023-04-15T05:39:36.767Z,101246.50
2023-04-15T05:42:06.045Z,101247.09
2023-04-15T05:44:48.495Z,101236.53
2023-04-15T05:47:17.714Z,101224.94
2023-04-15T05:49:46.896Z,101248.66
2023-04-15T05:52:16.370Z,101248.19
2023-04-15T05:54:45.474Z,101248.63
2023-04-15T05:57:14.822Z,101252.72
2023-04-15T05:59:52.186Z,101254.84
2023-04-15T06:02:21.806Z,101230.16
2023-04-15T06:04:51.116Z,101246.31
2023-04-15T06:07:20.806Z,101255.88
2023-04-15T06:09:49.998Z,101254.13
2023-04-15T06:12:30.642Z,101256.13
2023-04-15T06:15:02.088Z,101251.38
2023-04-15T06:17:31.501Z,101254.44
2023-04-15T06:20:00.783Z,101247.31
2023-04-15T06:22:30.215Z,101217.03
2023-04-15T06:24:59.654Z,101244.78
2023-04-15T06:27:28.815Z,101263.59
2023-04-15T06:30:05.224Z,101230.34
2023-04-15T06:32:34.616Z,101245.38
2023-04-15T06:35:09.303Z,101260.44
2023-04-15T06:37:39.033Z,101264.22
2023-04-15T06:40:10.367Z,101260.44
2023-04-15T06:42:39.902Z,101272.06
2023-04-15T06:45:17.551Z,101265.53
2023-04-15T06:47:46.994Z,101258.38
2023-04-15T06:50:16.491Z,101236.31
2023-04-15T06:52:50.888Z,101245.25
2023-04-15T06:55:33.669Z,101272.97
2023-04-15T06:58:03.265Z,101255.91
2023-04-15T07:00:35.325Z,101246.16
2023-04-15T07:03:05.331Z,101247.75
2023-04-15T07:05:34.608Z,101263.81
2023-04-15T07:08:03.720Z,101264.53
2023-04-15T07:10:43.051Z,101246.22
2023-04-15T07:13:12.521Z,101269.88
2023-04-15T07:15:43.850Z,101246.25
2023-04-15T07:18:13.765Z,101260.94
2023-04-15T07:20:43.327Z,101255.22
2023-04-15T07:23:18.576Z,101257.19
2023-04-15T07:25:47.934Z,101253.50
2023-04-15T07:28:17.174Z,101234.78
2023-04-15T07:30:48.757Z,101266.94
2023-04-15T07:33:17.984Z,101260.72
2023-04-15T07:35:54.822Z,101262.19
2023-04-15T07:38:24.358Z,101261.84
2023-04-15T07:40:54.635Z,101230.63
2023-04-15T07:43:23.805Z,101260.47
2023-04-15T07:46:00.282Z,101239.72
2023-04-15T07:48:29.624Z,101264.13
2023-04-15T07:51:01.016Z,101229.38
2023-04-15T07:53:31.165Z,101236.81
2023-04-15T07:56:00.577Z,101209.84
2023-04-15T07:58:39.863Z,101192.34
2023-04-15T08:01:11.354Z,101211.56
2023-04-15T08:03:43.051Z,101250.19
2023-04-15T08:06:20.556Z,101251.16
2023-04-15T08:08:49.876Z,101192.13
2023-04-15T08:11:19.438Z,101245.69
2023-04-15T08:13:48.806Z,101220.88
2023-04-15T08:16:25.571Z,101243.13
2023-04-15T08:18:55.705Z,101239.03
2023-04-15T08:21:25.646Z,101247.16
2023-04-15T08:23:56.260Z,101254.03
2023-04-15T08:26:30.930Z,101253.94
2023-04-15T08:29:00.484Z,101241.16
2023-04-15T08:31:37.746Z,101227.78
2023-04-15T08:34:07.327Z,101246.50
2023-04-15T08:36:36.562Z,101260.69
2023-04-15T08:39:06.664Z,101239.94
2023-04-15T08:41:41.731Z,101238.13
2023-04-15T08:44:16.713Z,101254.06
2023-04-15T08:46:53.644Z,101216.53
2023-04-15T08:49:25.684Z,101232.25
2023-04-15T08:51:56.317Z,101236.34
2023-04-15T08:54:26.894Z,101234.44
2023-04-15T08:57:02.006Z,101239.53
2023-04-15T08:59:32.740Z,101241.91
2023-04-15T09:02:10.100Z,101230.47
2023-04-15T09:04:39.580Z,101238.34
2023-04-15T09:07:08.961Z,101229.78
2023-04-15T09:09:39.952Z,101187.63
2023-04-15T09:12:10.706Z,101215.09
2023-04-15T09:14:42.036Z,101215.63
2023-04-15T09:17:13.686Z,101232.97
2023-04-15T09:22:39.565Z,101199.72
2023-04-15T09:25:28.521Z,101204.06
2023-04-15T09:28:00.242Z,101228.66
2023-04-15T09:30:36.487Z,101221.34
2023-04-15T09:33:10.565Z,101226.91
2023-04-15T09:35:46.477Z,101169.44
2023-04-15T09:38:15.753Z,101196.19
2023-04-15T09:40:45.267Z,101178.44
2023-04-15T09:43:21.156Z,101186.53
2023-04-15T09:45:53.304Z,101202.03
2023-04-15T09:48:27.910Z,101170.44
2023-04-15T09:51:03.070Z,101203.13
2023-04-15T09:53:34.887Z,101198.31
2023-04-15T09:56:04.268Z,101210.56
2023-04-15T09:58:35.454Z,101203.91
2023-04-15T10:01:08.823Z,101212.97
2023-04-15T10:03:42.863Z,101208.69
2023-04-15T10:06:12.929Z,101201.69
2023-04-15T10:08:57.443Z,101184.50
2023-04-15T10:11:27.493Z,101216.06
2023-04-15T10:16:37.235Z,101207.84
2023-04-15T10:19:11.242Z,101212.34
2023-04-15T10:21:41.087Z,101207.69
2023-04-15T10:24:11.072Z,101199.59
2023-04-15T10:29:29.685Z,101168.56
2023-04-15T10:32:18.499Z,101203.69
2023-04-15T10:34:54.316Z,101175.03
2023-04-15T10:37:24.995Z,101178.66
2023-04-15T10:39:54.325Z,101206.66
2023-04-15T10:42:24.395Z,101194.50
2023-04-15T10:44:59.157Z,101199.06
2023-04-15T10:47:41.947Z,101183.03
2023-04-15T10:50:13.629Z,101192.22
2023-04-15T10:52:43.772Z,101162.41
2023-04-15T10:55:28.369Z,101188.50
2023-04-15T10:58:02.726Z,101198.09
2023-04-15T11:00:39.683Z,101193.09
2023-04-15T11:03:14.051Z,101133.84
2023-04-15T11:09:02.109Z,101170.19
2023-04-15T11:12:08.449Z,101186.06
2023-04-15T11:14:47.589Z,101192.97
2023-04-15T11:17:16.959Z,101157.09
2023-04-15T11:20:01.371Z,101183.34
2023-04-15T11:22:33.198Z,101171.16
2023-04-15T11:25:23.890Z,101193.25
2023-04-15T11:27:54.382Z,101188.34
2023-04-15T11:30:25.190Z,101167.63
2023-04-15T11:33:02.489Z,101184.84
2023-04-15T11:35:36.678Z,101179.94
2023-04-15T11:38:11.594Z,101150.78
2023-04-15T11:40:47.192Z,101117.09
2023-04-15T11:43:23.070Z,101159.63
2023-04-15T11:45:54.577Z,101156.22
2023-04-15T11:48:30.641Z,101172.63
2023-04-15T11:51:02.884Z,101171.78
2023-04-15T11:53:50.764Z,101153.00
2023-04-15T11:56:24.218Z,101131.66
2023-04-15T11:59:01.579Z,101138.97
2023-04-15T12:01:36.037Z,101155.16
2023-04-15T12:04:13.881Z,101112.66
2023-04-15T12:06:43.540Z,101146.47
2023-04-15T12:09:21.589Z,101116.84
2023-04-15T12:11:52.626Z,101137.13
2023-04-15T12:14:44.611Z,101134.81
2023-04-15T12:17:15.896Z,101116.75
2023-04-15T12:22:25.226Z,101142.63
2023-04-15T12:25:08.712Z,101096.63
2023-04-15T12:27:38.145Z,101144.28
2023-04-15T12:30:21.594Z,101148.78
2023-04-15T12:32:51.054Z,101131.81
2023-04-15T12:35:35.404Z,101147.47
2023-04-15T12:38:04.973Z,101106.00
2023-04-15T12:40:37.766Z,101134.13
2023-04-15T12:43:07.400Z,101164.06
2023-04-15T12:52:16.554Z,101129.13
2023-04-15T12:54:47.638Z,101127.19
2023-04-15T12:57:22.408Z,101116.31
2023-04-15T12:59:52.531Z,101120.50
2023-04-15T13:02:25.301Z,101130.22
2023-04-15T13:05:10.135Z,101125.84
2023-04-15T13:07:41.564Z,101131.13
2023-04-15T13:10:12.033Z,101111.44
2023-04-15T13:12:41.430Z,101097.69
2023-04-15T13:15:13.136Z,101099.28
2023-04-15T13:17:47.319Z,101124.22
2023-04-15T13:20:27.108Z,101125.03
2023-04-15T13:22:58.432Z,101125.81
2023-04-15T13:25:32.831Z,101135.97
2023-04-15T13:28:15.131Z,101113.31
2023-04-15T13:30:45.550Z,101115.31
2023-04-15T13:33:14.891Z,101115.97
2023-04-15T13:35:48.817Z,101123.78
2023-04-15T13:38:20.292Z,101097.75
2023-04-15T13:41:13.242Z,101129.97
2023-04-15T13:43:42.584Z,101139.53
2023-04-15T13:46:11.938Z,101137.00
2023-04-15T13:48:43.208Z,101122.28
2023-04-15T13:51:27.600Z,101131.03
2023-04-15T13:54:00.939Z,101132.84
2023-04-15T13:56:32.116Z,101117.22
2023-04-15T13:59:02.969Z,101107.72
2023-04-15T14:01:32.341Z,101117.09
2023-04-15T14:04:11.853Z,101125.75
2023-04-15T14:06:41.415Z,101121.44
2023-04-15T14:11:53.026Z,101100.53
2023-04-15T14:14:22.689Z,101121.38
2023-04-15T14:16:52.469Z,101122.28
2023-04-15T14:19:21.936Z,101105.88
2023-04-15T14:22:03.209Z,101115.34
2023-04-15T14:24:34.633Z,101090.22
2023-04-15T14:27:04.047Z,101104.22
2023-04-15T14:29:33.324Z,101125.78
2023-04-15T14:32:08.575Z,101121.41
2023-04-15T14:34:42.409Z,101121.41
2023-04-15T14:37:26.917Z,101114.50
2023-04-15T14:39:58.310Z,101117.88
2023-04-15T14:42:32.932Z,101131.81
2023-04-15T14:45:08.359Z,101127.50
2023-04-15T14:47:37.974Z,101099.06
2023-04-15T14:50:08.370Z,101112.03
2023-04-15T14:52:47.978Z,101107.81
2023-04-15T14:55:19.272Z,101116.53
2023-04-15T14:57:53.969Z,101108.09
2023-04-15T15:00:23.191Z,101101.97
2023-04-15T15:02:52.718Z,101114.97
2023-04-15T15:05:22.273Z,101109.69
2023-04-15T15:07:51.925Z,101101.03
2023-04-15T15:10:48.003Z,101114.56
2023-04-15T15:13:14.087Z,101094.81
2023-04-15T15:15:44.850Z,101050.22
2023-04-15T15:18:25.135Z,101065.69
2023-04-15T15:20:59.822Z,101114.19
2023-04-15T15:23:29.746Z,101094.91
2023-04-15T15:28:36.484Z,101115.63
2023-04-15T15:31:06.342Z,101109.66
2023-04-15T15:33:36.243Z,101114.75
2023-04-15T15:36:06.249Z,101114.69
2023-04-15T15:38:48.620Z,101114.59
2023-04-15T15:41:30.354Z,101111.09
2023-04-15T15:43:59.794Z,101113.63
2023-04-15T15:46:36.114Z,101113.63
2023-04-15T15:49:06.016Z,101115.19
2023-04-15T15:51:35.513Z,101107.25
2023-04-15T15:54:09.933Z,101111.53
2023-04-15T15:56:41.796Z,101092.44
2023-04-15T15:59:12.854Z,101114.91
2023-04-15T16:01:42.220Z,101108.72
2023-04-15T16:04:12.187Z,101122.34
2023-04-15T16:06:46.988Z,101100.25
2023-04-15T16:09:16.495Z,101121.78
2023-04-15T16:11:48.008Z,101117.34
2023-04-15T16:14:17.477Z,101113.94
2023-04-15T16:16:49.872Z,101112.00
2023-04-15T16:19:19.690Z,101126.63
2023-04-15T16:22:02.323Z,101032.53
2023-04-15T16:24:33.802Z,101120.09
2023-04-15T16:27:19.513Z,101120.03
2023-04-15T16:29:48.985Z,101119.16
2023-04-15T16:32:18.386Z,101107.78
2023-04-15T16:34:47.814Z,101117.22
2023-04-15T16:37:17.151Z,101133.41
2023-04-15T16:42:54.352Z,101117.56
2023-04-15T16:45:23.827Z,101121.66
2023-04-15T16:47:53.082Z,101121.66
2023-04-15T16:50:27.616Z,101130.22
2023-04-15T16:52:56.869Z,101130.88
2023-04-15T16:55:26.712Z,101130.00
2023-04-15T16:58:02.401Z,101131.41
2023-04-15T17:00:35.748Z,101155.13
2023-04-15T17:03:06.564Z,101096.03
2023-04-15T17:05:36.463Z,101132.44
2023-04-15T17:08:06.385Z,101137.66
2023-04-15T17:10:54.914Z,101131.78
2023-04-15T17:13:31.467Z,101118.56
2023-04-15T17:16:02.069Z,101135.97
2023-04-15T17:18:41.354Z,101132.16
2023-04-15T17:21:26.025Z,101140.00
2023-04-15T17:24:00.478Z,101145.13
2023-04-15T17:26:41.299Z,101145.91
2023-04-15T17:29:14.452Z,101144.28
2023-04-15T17:35:19.643Z,101152.69
2023-04-15T17:38:26.876Z,101138.47
2023-04-15T17:41:17.026Z,101147.22
2023-04-15T17:44:11.584Z,101154.91
2023-04-15T17:47:02.750Z,101161.09
2023-04-15T17:50:02.064Z,101156.75
2023-04-15T17:52:51.469Z,101161.88
2023-04-15T17:55:47.944Z,101145.13
2023-04-15T17:58:38.837Z,101164.47
2023-04-15T18:01:28.410Z,101154.03
2023-04-15T18:04:20.018Z,101172.84
2023-04-15T18:07:09.685Z,101170.25
2023-04-15T18:09:59.296Z,101165.72
2023-04-15T18:12:53.714Z,101155.19
2023-04-15T18:15:44.121Z,101159.69
2023-04-15T18:18:39.828Z,101165.63
2023-04-15T18:21:16.096Z,101164.47
2023-04-15T18:23:50.697Z,101166.03
2023-04-15T18:26:21.249Z,101175.41
2023-04-15T18:28:50.642Z,101174.28
2023-04-15T18:31:20.016Z,101171.56
2023-04-15T18:33:50.362Z,101170.53
2023-04-15T18:36:21.860Z,101178.19
2023-04-15T18:38:57.506Z,101171.13
2023-04-15T18:41:27.354Z,101178.50
2023-04-15T18:44:07.782Z,101182.69
2023-04-15T18:46:50.196Z,101173.16
2023-04-15T18:49:27.101Z,101188.97
2023-04-15T18:52:13.113Z,101186.97
2023-04-15T18:54:53.580Z,101200.31
2023-04-15T18:57:23.636Z,101197.56
2023-04-15T19:00:02.522Z,101188.97
2023-04-15T19:02:35.717Z,101188.16
2023-04-15T19:05:06.595Z,101192.44
2023-04-15T19:07:37.952Z,101198.66
2023-04-15T19:10:22.930Z,101197.00
2023-04-15T19:12:52.355Z,101203.13
2023-04-15T19:15:21.847Z,101196.72
2023-04-15T19:17:51.264Z,101197.41
2023-04-15T19:20:20.564Z,101205.66
2023-04-15T19:25:33.157Z,101201.91
2023-04-15T19:28:07.493Z,101207.97
2023-04-15T19:30:37.065Z,101183.28
2023-04-15T19:33:07.037Z,101214.56
2023-04-15T19:35:42.719Z,101206.91
2023-04-15T19:38:14.354Z,101175.50
2023-04-15T19:40:49.266Z,101208.59
2023-04-15T19:43:31.501Z,101211.03
2023-04-15T19:46:01.306Z,101181.34
2023-04-15T19:48:30.716Z,101209.88
2023-04-15T19:51:15.005Z,101226.81
2023-04-15T19:53:53.712Z,101213.56
2023-04-15T19:56:23.516Z,101220.31
2023-04-15T19:58:53.572Z,101210.50
2023-04-15T20:01:29.890Z,101219.41
2023-04-15T20:04:18.306Z,101201.78
2023-04-15T20:06:52.899Z,101230.66
2023-04-15T20:09:24.271Z,101210.31
2023-04-15T20:12:09.929Z,101229.59
2023-04-15T20:14:45.561Z,101235.53
2023-04-15T20:17:16.672Z,101231.81
2023-04-15T20:19:46.217Z,101241.34
2023-04-15T20:22:15.627Z,101244.63
2023-04-15T20:24:47.231Z,101242.66
2023-04-15T20:27:16.837Z,101231.28
2023-04-15T20:29:46.168Z,101245.00
2023-04-15T20:32:15.733Z,101240.72
2023-04-15T20:34:45.042Z,101208.31
2023-04-15T20:37:14.682Z,101246.78
2023-04-15T20:39:43.950Z,101244.28
2023-04-15T20:42:15.221Z,101229.94
2023-04-15T20:44:53.539Z,101248.41
2023-04-15T20:47:23.074Z,101234.31
2023-04-15T20:49:52.550Z,101256.28
2023-04-15T20:52:21.829Z,101184.50
2023-04-15T20:54:51.070Z,101208.16
2023-04-15T20:57:24.274Z,101224.81
2023-04-15T20:59:54.809Z,101240.78
2023-04-15T21:02:25.349Z,101270.31
2023-04-15T21:04:55.369Z,101272.88
2023-04-15T21:07:29.692Z,101247.41
2023-04-15T21:09:59.368Z,101270.78
2023-04-15T21:12:31.155Z,101256.63
2023-04-15T21:15:01.381Z,101201.28
2023-04-15T21:17:30.798Z,101272.56
2023-04-15T21:20:11.348Z,101265.63
2023-04-15T21:22:40.922Z,101235.63
2023-04-15T21:25:11.494Z,101278.25
2023-04-15T21:27:42.947Z,101272.22
2023-04-15T21:30:14.182Z,101260.84
2023-04-15T21:32:43.772Z,101264.09
2023-04-15T21:35:13.103Z,101271.81
2023-04-15T21:37:43.208Z,101267.44
2023-04-15T21:40:14.470Z,101270.22
2023-04-15T21:42:57.344Z,101281.50
2023-04-15T21:45:27.164Z,101284.75
2023-04-15T21:47:56.818Z,101277.97
2023-04-15T21:50:41.938Z,101277.63
2023-04-15T21:53:11.523Z,101292.44
2023-04-15T21:55:46.984Z,101299.19
2023-04-15T21:58:18.298Z,101292.94
2023-04-15T22:00:47.723Z,101288.13
2023-04-15T22:03:17.089Z,101294.91
2023-04-15T22:05:47.793Z,101298.91
2023-04-15T22:08:17.099Z,101287.91
2023-04-15T22:10:46.200Z,101299.50
2023-04-15T22:13:17.430Z,101293.50
2023-04-15T22:15:46.772Z,101299.56
2023-04-15T22:18:22.307Z,101302.00
2023-04-15T22:20:51.684Z,101295.47
2023-04-15T22:23:20.928Z,101293.44
2023-04-15T22:26:00.367Z,101302.31
2023-04-15T22:28:31.661Z,101316.41
2023-04-15T22:31:01.894Z,101301.28
2023-04-15T22:33:31.164Z,101308.06
2023-04-15T22:36:00.430Z,101289.47
2023-04-15T22:38:30.143Z,101304.66
2023-04-15T22:40:59.901Z,101317.25
2023-04-15T22:43:36.155Z,101313.25
2023-04-15T22:46:10.734Z,101311.75
2023-04-15T22:48:40.054Z,101291.91
2023-04-15T22:51:10.531Z,101279.66
2023-04-15T22:53:49.938Z,101313.63
2023-04-15T22:56:21.340Z,101311.13
2023-04-15T22:59:00.923Z,101311.28
2023-04-15T23:01:31.637Z,101326.47
2023-04-15T23:04:08.288Z,101327.81
2023-04-15T23:06:50.814Z,101323.41
2023-04-15T23:09:20.638Z,101325.84
2023-04-15T23:11:50.005Z,101333.25
2023-04-15T23:17:01.033Z,101335.44
2023-04-15T23:19:30.571Z,101341.72
2023-04-15T23:22:06.759Z,101337.41
2023-04-15T23:24:36.038Z,101333.13
2023-04-15T23:27:05.811Z,101343.81
2023-04-15T23:29:37.106Z,101347.88
2023-04-15T23:32:17.324Z,101343.41
2023-04-15T23:34:51.726Z,101342.91
2023-04-15T23:37:21.226Z,101331.47
2023-04-15T23:39:55.632Z,101351.22
2023-04-15T23:42:25.655Z,101352.38
2023-04-15T23:44:56.907Z,101356.63
2023-04-15T23:47:34.797Z,101358.16
2023-04-15T23:50:04.298Z,101356.91
2023-04-15T23:52:33.677Z,101352.28
2023-04-15T23:55:02.895Z,101359.09
